Time;durP1;ratioP1;P1;durP2;ratioP2;P2;SDS_P1;SDS_P2;PMS_P1;PMS_P2;Temp;Humidity;BMP_temperature;BMP_pressure;BME280_temperature;BME280_humidity;BME280_pressure;Samples;Min_cycle;Max_cycle;Signal;HPM_P1;HPM_P2
2021/09/17 00:01:20;;;;;;;0.77;0.50;;;24.20;75.00;;;;;;5126967;28;20016;-37
2021/09/17 00:03:46;;;;;;;0.40;0.40;;;24.10;74.90;;;;;;5126857;28;20016;-36
2021/09/17 00:06:12;;;;;;;0.50;0.37;;;24.20;75.10;;;;;;5126853;28;20750;-36
2021/09/17 00:08:39;;;;;;;0.80;0.60;;;24.10;75.00;;;;;;5126929;28;20026;-37
2021/09/17 00:11:06;;;;;;;0.55;0.50;;;24.10;74.90;;;;;;5127147;28;20127;-36
2021/09/17 00:13:34;;;;;;;0.40;0.40;;;24.20;74.90;;;;;;5126567;28;20488;-37
2021/09/17 00:16:00;;;;;;;0.50;0.50;;;24.20;75.00;;;;;;5126582;28;20035;-36
2021/09/17 00:18:26;;;;;;;0.60;0.60;;;24.10;74.80;;;;;;5126731;28;20042;-36
2021/09/17 00:20:53;;;;;;;0.40;0.40;;;24.10;74.80;;;;;;5126514;28;20024;-36
2021/09/17 00:23:19;;;;;;;1.33;0.85;;;24.20;74.80;;;;;;5126877;28;20016;-36
2021/09/17 00:25:45;;;;;;;0.50;0.50;;;24.10;74.80;;;;;;5126443;28;20066;-36
2021/09/17 00:28:11;;;;;;;0.50;0.40;;;24.20;75.00;;;;;;5126281;28;20026;-36
2021/09/17 00:30:37;;;;;;;0.90;0.40;;;24.20;74.90;;;;;;5126597;28;20035;-37
2021/09/17 00:33:04;;;;;;;0.50;0.50;;;24.10;74.90;;;;;;5125959;28;20080;-37
2021/09/17 00:35:30;;;;;;;0.37;0.30;;;24.10;74.90;;;;;;5126413;28;20024;-36
2021/09/17 00:37:56;;;;;;;0.50;0.50;;;24.10;75.00;;;;;;5126193;27;20636;-36
2021/09/17 00:40:23;;;;;;;0.40;0.40;;;24.10;74.80;;;;;;5126385;28;20031;-36
2021/09/17 00:42:49;;;;;;;0.40;0.40;;;24.10;74.90;;;;;;5126139;28;20034;-36
2021/09/17 00:45:15;;;;;;;0.90;0.50;;;24.10;75.00;;;;;;5125969;28;20147;-36
2021/09/17 00:47:42;;;;;;;1.47;0.60;;;24.10;74.90;;;;;;5125489;28;20023;-38
2021/09/17 00:50:10;;;;;;;0.50;0.40;;;24.10;75.00;;;;;;5143203;27;20046;-36
2021/09/17 00:52:37;;;;;;;0.40;0.40;;;24.10;75.20;;;;;;5146427;27;20546;-36
2021/09/17 00:55:04;;;;;;;2.30;1.23;;;24.10;75.20;;;;;;5127671;27;20566;-36
2021/09/17 00:57:30;;;;;;;1.08;0.57;;;24.10;75.10;;;;;;5146414;27;20019;-37
2021/09/17 00:59:56;;;;;;;0.52;0.40;;;24.10;75.10;;;;;;5127890;27;20035;-37
2021/09/17 01:02:23;;;;;;;0.60;0.50;;;24.10;74.90;;;;;;5145662;27;20031;-37
2021/09/17 01:04:49;;;;;;;1.27;0.50;;;24.10;74.90;;;;;;5125723;28;20027;-36
2021/09/17 01:07:15;;;;;;;0.50;0.50;;;24.10;75.00;;;;;;5125392;28;20487;-37
2021/09/17 01:09:42;;;;;;;0.30;0.30;;;24.10;75.00;;;;;;5125760;28;20549;-37
2021/09/17 01:12:08;;;;;;;0.73;0.73;;;24.10;74.70;;;;;;5125607;28;20093;-37
2021/09/17 01:14:35;;;;;;;0.77;0.57;;;24.10;75.00;;;;;;5125521;28;20060;-36
2021/09/17 01:17:03;;;;;;;0.50;0.50;;;24.10;75.20;;;;;;5125189;28;20024;-36
2021/09/17 01:19:29;;;;;;;;;;;24.10;75.30;;;;;;5125836;28;20069;-37
2021/09/17 01:21:59;;;;;;;0.80;0.50;;;24.10;75.40;;;;;;5125480;28;19903;-37
2021/09/17 01:24:25;;;;;;;1.13;0.68;;;24.10;75.40;;;;;;5125084;28;20027;-37
2021/09/17 01:26:51;;;;;;;0.70;0.53;;;24.10;75.40;;;;;;5125308;28;20034;-37
2021/09/17 01:29:18;;;;;;;0.75;0.60;;;24.10;75.50;;;;;;5125194;28;20127;-36
2021/09/17 01:31:44;;;;;;;0.50;0.50;;;24.10;75.40;;;;;;5125036;28;20028;-36
2021/09/17 01:34:10;;;;;;;0.50;0.50;;;24.10;75.50;;;;;;5124422;28;20123;-37
2021/09/17 01:36:36;;;;;;;0.60;0.60;;;24.10;75.40;;;;;;5125234;28;20152;-37
2021/09/17 01:39:03;;;;;;;1.25;0.50;;;24.10;75.50;;;;;;5124961;28;20089;-37
2021/09/17 01:41:29;;;;;;;;;;;24.10;75.50;;;;;;5125441;28;20028;-37
2021/09/17 01:43:56;;;;;;;0.55;0.55;;;24.10;75.40;;;;;;5124879;28;19959;-36
2021/09/17 01:46:22;;;;;;;0.63;0.63;;;24.10;75.40;;;;;;5124976;28;20457;-37
2021/09/17 01:48:48;;;;;;;1.75;0.52;;;24.10;75.30;;;;;;5124661;28;20051;-37
2021/09/17 01:51:14;;;;;;;0.70;0.60;;;24.10;75.30;;;;;;5124756;28;20389;-37
2021/09/17 01:53:43;;;;;;;0.70;0.70;;;24.10;75.30;;;;;;5124616;28;20515;-36
2021/09/17 01:56:09;;;;;;;1.38;0.60;;;24.10;75.10;;;;;;5124763;28;20046;-36
2021/09/17 01:58:35;;;;;;;1.07;0.60;;;24.10;75.10;;;;;;5124372;28;20027;-37
2021/09/17 02:01:02;;;;;;;0.60;0.60;;;24.10;75.20;;;;;;5123716;28;20260;-37
2021/09/17 02:03:28;;;;;;;0.70;0.70;;;24.10;75.30;;;;;;5124546;28;20061;-37
2021/09/17 02:05:54;;;;;;;0.77;0.70;;;24.10;75.40;;;;;;5124507;28;20099;-36
2021/09/17 02:08:21;;;;;;;1.10;0.60;;;24.10;75.40;;;;;;5124365;28;20066;-36
2021/09/17 02:10:48;;;;;;;0.70;0.70;;;24.10;75.50;;;;;;5124354;28;20087;-36
2021/09/17 02:13:21;;;;;;;0.63;0.63;;;24.00;75.40;;;;;;5124100;28;20051;-36
2021/09/17 02:15:51;;;;;;;0.88;0.52;;;24.10;75.50;;;;;;5124042;28;20032;-36
2021/09/17 02:18:18;;;;;;;0.80;0.80;;;24.10;75.60;;;;;;5124058;28;20042;-36
2021/09/17 02:20:44;;;;;;;0.70;0.70;;;24.00;75.50;;;;;;5124118;28;20020;-36
2021/09/17 02:23:10;;;;;;;0.93;0.70;;;24.00;75.50;;;;;;5124194;28;20051;-37
2021/09/17 02:25:37;;;;;;;1.40;0.77;;;24.00;75.40;;;;;;5124085;28;20020;-36
2021/09/17 02:28:03;;;;;;;0.82;0.70;;;24.00;75.40;;;;;;5123722;28;20038;-37
2021/09/17 02:30:29;;;;;;;0.70;0.70;;;24.00;75.40;;;;;;5124328;28;20388;-37
2021/09/17 02:32:55;;;;;;;1.10;0.80;;;24.00;75.30;;;;;;5123743;28;20040;-36
2021/09/17 02:35:22;;;;;;;0.90;0.73;;;24.00;75.30;;;;;;5123985;28;20016;-37
2021/09/17 02:37:48;;;;;;;0.93;0.73;;;24.00;75.20;;;;;;5123880;28;20035;-36
2021/09/17 02:40:15;;;;;;;0.80;0.70;;;24.00;75.20;;;;;;5124163;28;20011;-37
2021/09/17 02:42:41;;;;;;;1.00;0.70;;;24.00;75.20;;;;;;5122993;28;20027;-36
2021/09/17 02:45:09;;;;;;;0.75;0.75;;;24.00;75.20;;;;;;5123661;28;20042;-36
2021/09/17 02:47:35;;;;;;;0.60;0.60;;;24.00;75.20;;;;;;5123875;28;20472;-36
2021/09/17 02:50:02;;;;;;;0.90;0.70;;;24.00;75.20;;;;;;5123124;28;20052;-37
2021/09/17 02:52:28;;;;;;;1.05;0.73;;;24.00;75.30;;;;;;5123699;28;20051;-36
2021/09/17 02:54:54;;;;;;;0.77;0.77;;;24.00;75.30;;;;;;5123739;28;20027;-36
2021/09/17 02:57:21;;;;;;;1.13;0.95;;;24.00;75.40;;;;;;5123790;28;20023;-36
2021/09/17 02:59:47;;;;;;;0.98;0.90;;;24.00;75.40;;;;;;5123522;28;20044;-36
2021/09/17 03:02:14;;;;;;;1.00;0.80;;;24.00;75.40;;;;;;5123691;28;20026;-37
2021/09/17 03:04:40;;;;;;;1.00;0.82;;;24.00;75.40;;;;;;5123376;28;20035;-36
2021/09/17 03:07:06;;;;;;;0.75;0.75;;;24.00;75.40;;;;;;5123645;28;20028;-36
2021/09/17 03:09:32;;;;;;;2.50;0.83;;;24.00;75.30;;;;;;5123522;28;20027;-37
2021/09/17 03:11:59;;;;;;;1.30;0.80;;;24.00;75.30;;;;;;5125562;28;20031;-36
2021/09/17 03:14:25;;;;;;;0.70;0.70;;;24.00;75.30;;;;;;5127704;28;20103;-37
2021/09/17 03:16:51;;;;;;;1.03;0.80;;;24.00;75.30;;;;;;5109508;28;20028;-36
2021/09/17 03:19:18;;;;;;;1.15;0.90;;;24.00;75.20;;;;;;5127403;28;20032;-37
2021/09/17 03:21:44;;;;;;;0.82;0.70;;;24.00;75.30;;;;;;5127632;28;20024;-39
2021/09/17 03:24:10;;;;;;;0.80;0.80;;;24.00;75.20;;;;;;5127618;28;20032;-36
2021/09/17 03:26:37;;;;;;;1.08;0.88;;;24.00;75.20;;;;;;5127564;28;20030;-36
2021/09/17 03:29:03;;;;;;;1.23;0.70;;;23.90;75.10;;;;;;5127433;28;20035;-37
2021/09/17 03:31:29;;;;;;;0.90;0.90;;;24.00;75.10;;;;;;5127819;28;20024;-37
2021/09/17 03:33:58;;;;;;;1.23;0.93;;;23.90;75.10;;;;;;5127217;28;20032;-36
2021/09/17 03:36:26;;;;;;;1.77;0.85;;;23.90;75.10;;;;;;5127571;28;20027;-37
2021/09/17 03:38:53;;;;;;;1.40;1.02;;;24.00;76.00;;;;;;5127171;28;20023;-37
2021/09/17 03:41:20;;;;;;;1.42;0.90;;;24.00;75.30;;;;;;5126909;28;20076;-37
2021/09/17 03:43:46;;;;;;;1.97;0.93;;;24.00;75.30;;;;;;5127488;28;20031;-36
2021/09/17 03:46:12;;;;;;;0.97;0.80;;;24.00;75.30;;;;;;5127176;28;20555;-37
2021/09/17 03:48:39;;;;;;;1.52;1.20;;;24.00;75.30;;;;;;5126563;28;20083;-37
2021/09/17 03:51:05;;;;;;;1.95;1.23;;;23.90;75.30;;;;;;5108634;28;20032;-37
2021/09/17 03:53:32;;;;;;;1.42;1.10;;;23.90;75.30;;;;;;5126928;28;20130;-36
2021/09/17 03:55:58;;;;;;;2.23;1.03;;;23.90;75.20;;;;;;5127182;28;20067;-36
2021/09/17 03:58:24;;;;;;;1.20;1.10;;;24.00;75.20;;;;;;5126992;28;20019;-37
2021/09/17 04:00:50;;;;;;;0.93;0.90;;;23.90;75.10;;;;;;5126651;28;20023;-36
2021/09/17 04:03:16;;;;;;;1.17;1.08;;;24.00;75.20;;;;;;5127034;28;20024;-37
2021/09/17 04:05:43;;;;;;;0.80;0.80;;;23.90;75.10;;;;;;5126467;28;20020;-37
2021/09/17 04:08:09;;;;;;;1.13;1.03;;;23.90;75.20;;;;;;5126918;28;20035;-36
2021/09/17 04:10:35;;;;;;;1.00;0.90;;;23.90;75.80;;;;;;5126611;28;20023;-36
2021/09/17 04:13:01;;;;;;;1.05;1.05;;;23.90;75.00;;;;;;5126667;28;20123;-37
2021/09/17 04:15:28;;;;;;;1.30;1.20;;;23.90;75.10;;;;;;5126797;28;20039;-37
2021/09/17 04:17:54;;;;;;;1.20;1.10;;;23.90;75.10;;;;;;5126412;28;20031;-37
2021/09/17 04:20:20;;;;;;;1.13;1.03;;;23.90;75.10;;;;;;5126532;28;20020;-36
2021/09/17 04:22:46;;;;;;;1.33;1.23;;;23.90;75.10;;;;;;5125606;28;20020;-36
2021/09/17 04:25:13;;;;;;;1.20;1.10;;;23.90;75.20;;;;;;5126441;28;20110;-37
2021/09/17 04:27:40;;;;;;;1.17;1.07;;;23.90;75.30;;;;;;5126473;28;20058;-37
2021/09/17 04:30:08;;;;;;;1.10;1.00;;;23.90;75.20;;;;;;5108111;28;20024;-37
2021/09/17 04:32:34;;;;;;;1.73;1.10;;;23.90;75.20;;;;;;5126200;28;20035;-36
2021/09/17 04:35:01;;;;;;;1.20;1.10;;;23.90;75.30;;;;;;5126346;28;20028;-37
2021/09/17 04:37:27;;;;;;;2.40;1.00;;;23.90;75.30;;;;;;5126423;28;20020;-37
2021/09/17 04:39:53;;;;;;;1.17;1.07;;;23.90;75.20;;;;;;5125958;28;20032;-36
2021/09/17 04:42:19;;;;;;;1.10;1.00;;;23.90;75.20;;;;;;5126187;28;20031;-37
2021/09/17 04:44:46;;;;;;;1.02;1.02;;;23.90;75.00;;;;;;5125628;28;20092;-37
2021/09/17 04:47:13;;;;;;;1.60;1.17;;;23.90;75.10;;;;;;5126059;28;20027;-37
2021/09/17 04:49:39;;;;;;;1.50;1.02;;;23.90;75.10;;;;;;5125720;28;20039;-37
2021/09/17 04:52:05;;;;;;;1.40;1.30;;;23.90;75.00;;;;;;5125818;28;20027;-37
2021/09/17 04:54:31;;;;;;;0.80;0.80;;;23.90;75.00;;;;;;5125842;28;20061;-36
2021/09/17 04:56:58;;;;;;;1.27;1.10;;;23.80;75.00;;;;;;5125924;28;20039;-37
2021/09/17 04:59:24;;;;;;;0.98;0.90;;;23.80;74.90;;;;;;5125868;28;20047;-37
2021/09/17 05:01:50;;;;;;;2.00;1.10;;;23.90;75.00;;;;;;5116857;28;20560;-37
2021/09/17 05:04:16;;;;;;;1.05;1.00;;;23.90;75.00;;;;;;5122098;28;20024;-37
2021/09/17 05:06:43;;;;;;;1.67;1.00;;;23.80;75.00;;;;;;5125802;28;20073;-36
2021/09/17 05:09:09;;;;;;;1.20;1.10;;;23.90;75.10;;;;;;5107557;28;20031;-37
2021/09/17 05:11:35;;;;;;;1.20;1.10;;;23.80;75.10;;;;;;5125522;28;20032;-36
2021/09/17 05:14:01;;;;;;;1.27;1.17;;;23.90;75.20;;;;;;5125368;28;20499;-37
2021/09/17 05:16:31;;;;;;;1.23;1.13;;;23.90;75.30;;;;;;5125186;28;20031;-37
2021/09/17 05:18:59;;;;;;;0.98;0.98;;;23.80;75.30;;;;;;5125218;28;20085;-37
2021/09/17 05:21:25;;;;;;;1.25;1.15;;;23.80;75.20;;;;;;5124977;28;20028;-37
2021/09/17 05:23:52;;;;;;;1.20;1.10;;;23.90;75.20;;;;;;5125061;28;20027;-36
2021/09/17 05:26:18;;;;;;;1.00;1.00;;;23.90;75.20;;;;;;5125294;28;20087;-37
2021/09/17 05:28:44;;;;;;;1.50;1.10;;;23.80;75.00;;;;;;5125229;28;20039;-36
2021/09/17 05:31:10;;;;;;;1.20;1.10;;;23.80;75.70;;;;;;5124801;28;20024;-36
2021/09/17 05:33:37;;;;;;;1.30;1.10;;;23.90;75.10;;;;;;5125015;28;20059;-37
2021/09/17 05:36:03;;;;;;;1.35;1.15;;;23.90;75.10;;;;;;5125132;28;20019;-36
2021/09/17 05:38:29;;;;;;;1.20;1.10;;;23.80;74.90;;;;;;5125038;28;20083;-37
2021/09/17 05:40:55;;;;;;;2.30;1.10;;;23.80;75.00;;;;;;5124909;28;20032;-36
2021/09/17 05:43:22;;;;;;;1.20;1.10;;;23.80;74.90;;;;;;5124955;28;20023;-36
2021/09/17 05:45:48;;;;;;;1.43;1.00;;;23.80;75.00;;;;;;5124722;28;20027;-37
2021/09/17 05:48:14;;;;;;;1.42;1.10;;;23.80;74.90;;;;;;5124034;28;20055;-37
2021/09/17 05:50:40;;;;;;;1.20;1.08;;;23.80;75.00;;;;;;5124347;28;20047;-36
2021/09/17 05:53:06;;;;;;;0.98;0.98;;;23.80;75.00;;;;;;5124644;28;20039;-36
2021/09/17 05:55:33;;;;;;;1.02;1.02;;;23.80;75.00;;;;;;5124724;28;20031;-37
2021/09/17 05:57:59;;;;;;;1.10;1.10;;;23.80;75.10;;;;;;5124828;28;20082;-36
2021/09/17 06:00:25;;;;;;;1.33;1.10;;;23.80;75.10;;;;;;5123224;28;20046;-37
2021/09/17 06:02:51;;;;;;;1.73;1.17;;;23.80;75.10;;;;;;5119282;28;20412;-36
2021/09/17 06:05:18;;;;;;;1.20;1.10;;;23.80;75.10;;;;;;5103831;28;20051;-36
2021/09/17 06:07:44;;;;;;;1.17;1.10;;;23.80;75.00;;;;;;5109238;28;21280;-36
2021/09/17 06:10:11;;;;;;;1.15;1.05;;;23.80;75.10;;;;;;5123350;28;20061;-37
2021/09/17 06:12:38;;;;;;;1.20;1.10;;;23.80;75.00;;;;;;5124163;28;20046;-36
2021/09/17 06:15:05;;;;;;;1.17;1.08;;;23.80;75.00;;;;;;5123876;28;20019;-37
2021/09/17 06:17:31;;;;;;;1.33;1.23;;;23.80;74.90;;;;;;5122272;28;20048;-36
2021/09/17 06:19:58;;;;;;;1.47;1.03;;;23.80;75.00;;;;;;5124380;28;20035;-37
2021/09/17 06:22:24;;;;;;;1.08;0.98;;;23.80;75.00;;;;;;5123906;28;20035;-37
2021/09/17 06:24:50;;;;;;;1.50;1.40;;;23.80;75.00;;;;;;5124221;28;20023;-36
2021/09/17 06:27:16;;;;;;;1.27;1.17;;;23.80;74.90;;;;;;5124259;28;20106;-36
2021/09/17 06:29:42;;;;;;;1.02;0.93;;;23.80;75.00;;;;;;5124182;28;20062;-36
2021/09/17 06:32:09;;;;;;;1.20;1.10;;;23.80;75.00;;;;;;5123927;28;20697;-37
2021/09/17 06:34:35;;;;;;;1.30;1.20;;;23.80;75.00;;;;;;5123994;28;20727;-37
2021/09/17 06:37:01;;;;;;;1.10;1.00;;;23.70;74.90;;;;;;5123897;28;20019;-36
2021/09/17 06:39:27;;;;;;;1.25;1.15;;;23.80;75.00;;;;;;5109414;28;20024;-37
2021/09/17 06:41:54;;;;;;;3.53;1.03;;;23.80;75.10;;;;;;5119515;28;20045;-37
2021/09/17 06:44:20;;;;;;;1.10;1.07;;;23.70;75.00;;;;;;5123749;28;20138;-37
2021/09/17 06:46:47;;;;;;;1.13;1.00;;;23.80;75.10;;;;;;5123473;28;20050;-37
2021/09/17 06:49:14;;;;;;;1.10;1.00;;;23.80;75.00;;;;;;5123773;28;20188;-37
2021/09/17 06:51:40;;;;;;;1.10;1.10;;;23.70;74.90;;;;;;5123641;28;20058;-36
2021/09/17 06:54:06;;;;;;;1.00;0.95;;;23.80;75.00;;;;;;5123724;28;20614;-36
2021/09/17 06:56:32;;;;;;;1.33;0.90;;;23.70;75.00;;;;;;5123864;28;20079;-36
2021/09/17 06:58:59;;;;;;;1.20;1.10;;;23.70;75.00;;;;;;5123837;28;20485;-36
2021/09/17 07:01:25;;;;;;;1.00;1.00;;;23.70;74.90;;;;;;5123510;28;20032;-36
2021/09/17 07:03:52;;;;;;;1.02;1.00;;;23.70;74.90;;;;;;5123736;28;20024;-36
2021/09/17 07:06:18;;;;;;;1.25;1.15;;;23.70;74.90;;;;;;5123867;28;20034;-36
2021/09/17 07:08:45;;;;;;;1.10;1.00;;;23.70;75.00;;;;;;5123439;28;20046;-36
2021/09/17 07:11:11;;;;;;;1.73;1.10;;;23.70;74.90;;;;;;5123805;28;20036;-36
2021/09/17 07:13:37;;;;;;;1.47;1.20;;;23.70;74.90;;;;;;5123274;28;20055;-38
2021/09/17 07:16:04;;;;;;;1.60;1.03;;;23.70;74.90;;;;;;5123793;28;20224;-36
2021/09/17 07:18:30;;;;;;;2.15;1.00;;;23.70;75.00;;;;;;5123702;28;20878;-36
2021/09/17 07:20:57;;;;;;;2.08;0.90;;;23.70;75.00;;;;;;5123603;28;20020;-37
2021/09/17 07:23:23;;;;;;;1.77;1.15;;;23.70;75.00;;;;;;5123296;28;20031;-36
2021/09/17 07:25:49;;;;;;;1.20;1.10;;;23.70;75.00;;;;;;5123516;28;20113;-36
2021/09/17 07:28:16;;;;;;;1.77;1.20;;;23.70;75.00;;;;;;5123648;28;20028;-37
2021/09/17 07:30:42;;;;;;;1.60;1.10;;;23.70;75.10;;;;;;5123409;28;20027;-36
2021/09/17 07:33:08;;;;;;;2.43;1.00;;;23.70;75.00;;;;;;5122962;28;20040;-36
2021/09/17 07:35:34;;;;;;;1.30;1.20;;;23.70;75.00;;;;;;5123442;28;20016;-36
2021/09/17 07:38:01;;;;;;;1.10;1.00;;;23.70;75.00;;;;;;5123251;28;20028;-37
2021/09/17 07:40:27;;;;;;;1.83;1.10;;;23.70;75.00;;;;;;5123558;28;20788;-36
2021/09/17 07:42:54;;;;;;;2.03;1.00;;;23.70;75.00;;;;;;5122912;28;20388;-36
2021/09/17 07:45:21;;;;;;;1.03;1.03;;;23.70;75.00;;;;;;5122640;28;20028;-36
2021/09/17 07:47:47;;;;;;;0.98;0.98;;;23.70;75.00;;;;;;5123403;28;20038;-36
2021/09/17 07:50:14;;;;;;;1.27;0.97;;;23.70;74.90;;;;;;5123122;28;20047;-36
2021/09/17 07:52:41;;;;;;;1.30;1.20;;;23.70;75.00;;;;;;5123131;28;20127;-36
2021/09/17 07:55:08;;;;;;;1.08;1.08;;;23.70;74.90;;;;;;5123229;28;20055;-36
2021/09/17 07:57:34;;;;;;;1.20;1.10;;;23.70;75.00;;;;;;5123030;28;20040;-36
2021/09/17 08:00:01;;;;;;;1.17;1.08;;;23.70;75.00;;;;;;5126692;28;20032;-36
2021/09/17 08:02:27;;;;;;;2.25;0.90;;;23.70;75.00;;;;;;5126840;28;20016;-37
2021/09/17 08:04:53;;;;;;;2.37;1.07;;;23.70;75.00;;;;;;5114120;28;20032;-36
2021/09/17 08:07:19;;;;;;;2.38;1.00;;;23.70;75.00;;;;;;5106446;28;20074;-37
2021/09/17 08:09:46;;;;;;;0.90;0.90;;;23.70;75.00;;;;;;5123842;28;20092;-36
2021/09/17 08:12:12;;;;;;;1.23;1.10;;;23.70;75.00;;;;;;5126825;28;20696;-36
2021/09/17 08:14:38;;;;;;;1.08;1.08;;;23.70;75.00;;;;;;5126349;28;20084;-37
2021/09/17 08:17:04;;;;;;;1.42;0.98;;;23.70;75.00;;;;;;5126453;28;20023;-37
2021/09/17 08:19:31;;;;;;;0.98;0.95;;;23.70;75.00;;;;;;5126357;28;20034;-36
2021/09/17 08:21:57;;;;;;;0.97;0.97;;;23.60;74.90;;;;;;5122661;28;20039;-36
2021/09/17 08:24:24;;;;;;;1.20;1.10;;;23.70;75.00;;;;;;5108015;28;20034;-36
2021/09/17 08:26:51;;;;;;;;;;;23.70;75.00;;;;;;5126935;28;20028;-37
2021/09/17 08:29:17;;;;;;;1.42;1.08;;;23.70;75.00;;;;;;5126568;28;20057;-36
2021/09/17 08:31:43;;;;;;;1.20;1.10;;;23.70;75.00;;;;;;5126613;28;20038;-37
2021/09/17 08:34:09;;;;;;;1.03;1.00;;;23.70;75.00;;;;;;5125135;28;20039;-36
2021/09/17 08:36:36;;;;;;;1.55;1.10;;;23.60;74.90;;;;;;5108095;28;20027;-36
2021/09/17 08:39:06;;;;;;;1.17;1.00;;;23.70;74.90;;;;;;5107976;28;20032;-37
2021/09/17 08:41:32;;;;;;;1.50;1.17;;;23.70;75.00;;;;;;5126164;28;20046;-36
2021/09/17 08:43:58;;;;;;;1.05;1.05;;;23.60;74.90;;;;;;5125999;28;20034;-36
2021/09/17 08:46:25;;;;;;;1.20;1.10;;;23.70;75.00;;;;;;5126108;28;20028;-36
2021/09/17 08:48:51;;;;;;;1.23;1.13;;;23.60;75.00;;;;;;5125982;28;20044;-37
2021/09/17 08:51:21;;;;;;;1.23;1.13;;;23.60;74.80;;;;;;5125873;28;20111;-36
2021/09/17 08:53:47;;;;;;;1.20;1.10;;;23.60;74.90;;;;;;5126033;28;20695;-42
2021/09/17 08:56:17;;;;;;;1.20;1.10;;;23.60;75.00;;;;;;5125967;28;20108;-36
2021/09/17 08:58:44;;;;;;;0.98;0.98;;;23.60;75.00;;;;;;5107681;28;20030;-36
2021/09/17 09:01:32;;;;;;;2.30;1.10;;;23.60;74.90;;;;;;5125875;28;20032;-37
2021/09/17 09:04:03;;;;;;;0.93;0.90;;;23.60;75.00;;;;;;5125953;28;20042;-37
2021/09/17 09:06:39;;;;;;;1.10;1.00;;;23.60;75.00;;;;;;5125248;28;20048;-36
2021/09/17 09:09:26;;;;;;;1.15;1.05;;;23.60;74.90;;;;;;5125121;28;20067;-37
2021/09/17 09:11:52;;;;;;;0.93;0.88;;;23.60;75.00;;;;;;5106867;28;20053;-36
2021/09/17 09:14:19;;;;;;;1.40;1.30;;;23.60;74.90;;;;;;5125433;28;20042;-36
2021/09/17 09:16:47;;;;;;;1.13;1.02;;;23.60;74.90;;;;;;5125691;28;20037;-37
2021/09/17 09:19:33;;;;;;;1.10;1.00;;;23.60;74.90;;;;;;5125449;28;20119;-36
2021/09/17 09:22:10;;;;;;;0.90;0.90;;;23.60;74.90;;;;;;5125253;28;20045;-36
2021/09/17 09:24:42;;;;;;;1.30;1.00;;;23.60;74.90;;;;;;5125003;28;20039;-37
2021/09/17 09:27:16;;;;;;;1.05;0.88;;;23.60;75.60;;;;;;5125507;28;20039;-36
2021/09/17 09:29:44;;;;;;;1.10;1.08;;;23.60;75.00;;;;;;5125555;28;20031;-37
2021/09/17 09:32:34;;;;;;;1.00;0.90;;;23.60;75.00;;;;;;5125260;28;20035;-36
2021/09/17 09:35:04;;;;;;;2.08;0.88;;;23.60;75.00;;;;;;5124892;28;20047;-36
2021/09/17 09:37:36;;;;;;;1.00;1.00;;;23.60;75.00;;;;;;5125140;28;20412;-37
2021/09/17 09:40:07;;;;;;;1.15;1.05;;;23.60;75.10;;;;;;5124742;28;20053;-36
2021/09/17 09:42:49;;;;;;;0.95;0.90;;;23.60;75.00;;;;;;5125101;28;20035;-37
2021/09/17 09:45:20;;;;;;;1.25;0.95;;;23.60;75.00;;;;;;5124996;28;20031;-36
2021/09/17 09:47:46;;;;;;;1.85;1.25;;;23.60;75.00;;;;;;5124975;28;20102;-36
2021/09/17 09:50:24;;;;;;;1.27;1.00;;;23.60;75.00;;;;;;5124894;28;20081;-37
2021/09/17 09:52:59;;;;;;;1.08;0.65;;;23.60;74.90;;;;;;5124407;28;20122;-37
2021/09/17 09:55:26;;;;;;;1.20;0.90;;;23.60;75.00;;;;;;5124454;28;20046;-37
2021/09/17 09:57:52;;;;;;;1.30;1.00;;;23.60;75.00;;;;;;5124965;28;20051;-36
2021/09/17 10:00:19;;;;;;;1.20;1.10;;;23.60;74.90;;;;;;5106758;28;20035;-37
2021/09/17 10:02:45;;;;;;;0.80;0.80;;;23.60;74.90;;;;;;5124777;28;20050;-36
2021/09/17 10:05:13;;;;;;;1.25;1.20;;;23.60;74.90;;;;;;5124231;28;20028;-36
2021/09/17 10:07:39;;;;;;;1.13;1.10;;;23.60;75.00;;;;;;5124703;28;20028;-36
2021/09/17 10:10:08;;;;;;;0.73;0.73;;;23.60;74.90;;;;;;5124265;28;20056;-36
2021/09/17 10:12:34;;;;;;;1.15;1.05;;;23.60;75.00;;;;;;5124559;28;20028;-36
2021/09/17 10:15:00;;;;;;;1.10;1.00;;;23.60;75.00;;;;;;5124562;28;20024;-37
2021/09/17 10:17:34;;;;;;;0.90;0.90;;;23.60;75.10;;;;;;5105378;28;20019;-36
2021/09/17 10:20:01;;;;;;;0.80;0.80;;;23.60;75.10;;;;;;5106453;28;20030;-37
2021/09/17 10:22:36;;;;;;;1.30;1.20;;;23.60;75.20;;;;;;5123799;28;20062;-36
2021/09/17 10:25:05;;;;;;;0.90;0.90;;;23.60;75.10;;;;;;5124255;28;20059;-37
2021/09/17 10:27:32;;;;;;;1.00;0.90;;;23.60;75.10;;;;;;5124131;28;20054;-36
2021/09/17 10:30:00;;;;;;;1.20;1.10;;;23.60;75.10;;;;;;5119711;28;20024;-36
2021/09/17 10:32:48;;;;;;;1.30;1.00;;;23.60;75.10;;;;;;5120477;28;20023;-36
2021/09/17 10:35:23;;;;;;;1.13;1.02;;;23.60;75.10;;;;;;5123910;28;20043;-36
2021/09/17 10:37:58;;;;;;;0.85;0.82;;;23.60;75.00;;;;;;5124060;28;20019;-37
2021/09/17 10:40:40;;;;;;;0.93;0.90;;;23.60;75.00;;;;;;5123937;28;20024;-37
2021/09/17 10:43:13;;;;;;;1.20;1.10;;;23.60;75.00;;;;;;5124173;28;20066;-36
2021/09/17 10:45:39;;;;;;;1.20;1.00;;;23.60;75.00;;;;;;5123793;28;20035;-36
2021/09/17 10:48:07;;;;;;;1.10;1.00;;;23.50;75.00;;;;;;5124155;28;20031;-36
2021/09/17 10:51:04;;;;;;;1.10;1.00;;;23.60;75.00;;;;;;5123762;28;20052;-36
2021/09/17 10:53:39;;;;;;;2.75;1.10;;;23.60;75.00;;;;;;5123705;28;20038;-37
2021/09/17 10:56:11;;;;;;;0.75;0.75;;;23.50;75.00;;;;;;5123599;28;20781;-37
2021/09/17 10:58:38;;;;;;;1.30;1.10;;;23.60;75.10;;;;;;5123869;28;20083;-37
2021/09/17 11:01:11;;;;;;;1.70;0.95;;;23.60;75.00;;;;;;5124023;28;20028;-37
2021/09/17 11:03:48;;;;;;;1.13;1.05;;;23.60;75.10;;;;;;5123836;28;20023;-36
2021/09/17 11:06:26;;;;;;;1.00;1.00;;;23.50;75.00;;;;;;5123473;28;20023;-36
2021/09/17 11:09:01;;;;;;;1.42;1.23;;;23.50;75.10;;;;;;5123283;28;20036;-36
2021/09/17 11:11:29;;;;;;;1.02;0.93;;;23.50;75.10;;;;;;5105526;28;20023;-36
2021/09/17 11:14:02;;;;;;;1.13;1.02;;;23.50;75.00;;;;;;5105628;28;20031;-37
2021/09/17 11:16:29;;;;;;;1.05;1.00;;;23.50;75.00;;;;;;5123446;28;20019;-37
2021/09/17 11:19:06;;;;;;;1.15;1.05;;;23.50;75.00;;;;;;5123669;28;20034;-36
2021/09/17 11:21:37;;;;;;;1.05;1.00;;;23.50;75.00;;;;;;5123556;28;20448;-36
2021/09/17 11:24:04;;;;;;;1.15;1.08;;;23.50;74.90;;;;;;5123646;28;20059;-37
2021/09/17 11:26:31;;;;;;;;;;;23.50;74.90;;;;;;5124005;28;20024;-36
2021/09/17 11:29:17;;;;;;;0.90;0.90;;;23.50;74.90;;;;;;5123675;28;19915;-37
2021/09/17 11:31:47;;;;;;;1.00;1.00;;;23.50;75.00;;;;;;5123495;28;20035;-37
2021/09/17 11:34:15;;;;;;;1.02;1.02;;;23.50;75.00;;;;;;5110079;28;20028;-36
2021/09/17 11:36:58;;;;;;;0.98;0.90;;;23.50;75.00;;;;;;5126609;28;20674;-36
2021/09/17 11:39:31;;;;;;;1.10;1.00;;;23.50;75.00;;;;;;5127439;28;20059;-36
2021/09/17 11:42:07;;;;;;;1.80;1.10;;;23.50;75.00;;;;;;5127368;28;20032;-36
2021/09/17 11:44:46;;;;;;;1.88;1.17;;;23.50;75.00;;;;;;5127622;28;20444;-37
2021/09/17 11:47:32;;;;;;;1.10;1.00;;;23.50;75.00;;;;;;5127171;28;20024;-37
2021/09/17 11:50:00;;;;;;;1.13;1.10;;;23.50;75.00;;;;;;5127047;28;20056;-36
2021/09/17 11:52:26;;;;;;;1.60;1.20;;;23.50;75.10;;;;;;5127357;28;20038;-36
2021/09/17 11:55:05;;;;;;;0.90;0.90;;;23.50;75.10;;;;;;5127057;28;20027;-36
2021/09/17 11:57:41;;;;;;;1.40;1.30;;;23.50;75.00;;;;;;5127185;28;20106;-36
2021/09/17 12:00:18;;;;;;;1.13;1.10;;;23.50;75.00;;;;;;5127119;28;20031;-36
2021/09/17 12:02:45;;;;;;;1.35;1.20;;;23.50;75.00;;;;;;5126518;28;20079;-36
2021/09/17 12:05:16;;;;;;;1.20;1.10;;;23.50;75.00;;;;;;5126555;28;20107;-37
2021/09/17 12:07:43;;;;;;;1.17;1.13;;;23.50;75.00;;;;;;5108757;28;20023;-36
2021/09/17 12:10:17;;;;;;;1.40;1.27;;;23.50;75.00;;;;;;5106470;28;20039;-37
2021/09/17 12:12:46;;;;;;;1.15;1.08;;;23.50;75.00;;;;;;5106533;28;20115;-36
2021/09/17 12:15:14;;;;;;;1.10;1.10;;;23.50;74.90;;;;;;5106430;28;20057;-36
2021/09/17 12:17:57;;;;;;;1.13;1.02;;;23.50;74.90;;;;;;5094410;28;20028;-37
2021/09/17 12:20:37;;;;;;;1.23;1.02;;;23.50;75.00;;;;;;5126817;28;20361;-37
2021/09/17 12:23:03;;;;;;;1.40;0.90;;;23.50;74.90;;;;;;5126826;28;20020;-36
2021/09/17 12:25:30;;;;;;;1.17;1.15;;;23.50;75.00;;;;;;5126447;28;20035;-36
2021/09/17 12:28:07;;;;;;;1.13;1.08;;;23.50;75.00;;;;;;5126410;28;20114;-36
2021/09/17 12:30:35;;;;;;;1.30;1.10;;;23.50;75.00;;;;;;5126707;28;20030;-36
2021/09/17 12:33:16;;;;;;;1.20;1.10;;;23.50;75.00;;;;;;5126252;28;20035;-36
2021/09/17 12:35:47;;;;;;;1.48;1.38;;;23.50;75.20;;;;;;5106438;28;20053;-36
2021/09/17 12:38:15;;;;;;;1.92;1.15;;;23.50;75.30;;;;;;5126143;28;20091;-36
2021/09/17 12:40:45;;;;;;;1.10;1.00;;;23.50;75.40;;;;;;5126277;28;20015;-36
2021/09/17 12:43:16;;;;;;;0.98;0.98;;;23.50;75.10;;;;;;5126304;28;20093;-36
2021/09/17 12:46:02;;;;;;;1.30;1.20;;;23.50;75.00;;;;;;5104849;28;20039;-36
2021/09/17 12:48:30;;;;;;;1.40;1.30;;;23.50;75.00;;;;;;5105396;28;20062;-37
2021/09/17 12:50:57;;;;;;;1.30;1.20;;;23.50;74.90;;;;;;5105865;28;20028;-37
2021/09/17 12:53:23;;;;;;;1.50;1.37;;;23.50;74.90;;;;;;5105703;28;20043;-36